sensor_id;sensor_type;location;lat;lon;timestamp;temperature;humidity
25482;DHT22;13395;50.752;4.268;2023-08-12T00:00:17;22.30;99.90
25482;DHT22;13395;50.752;4.268;2023-08-12T00:02:43;22.30;99.90
25482;DHT22;13395;50.752;4.268;2023-08-12T00:05:09;22.30;99.90
25482;DHT22;13395;50.752;4.268;2023-08-12T00:07:36;22.30;99.90
25482;DHT22;13395;50.752;4.268;2023-08-12T00:10:03;22.30;99.90
25482;DHT22;13395;50.752;4.268;2023-08-12T00:12:33;22.30;99.90
25482;DHT22;13395;50.752;4.268;2023-08-12T00:14:59;22.30;99.90
25482;DHT22;13395;50.752;4.268;2023-08-12T00:17:26;22.40;99.90
25482;DHT22;13395;50.752;4.268;2023-08-12T00:19:52;22.30;99.90
25482;DHT22;13395;50.752;4.268;2023-08-12T00:22:17;22.30;99.90
25482;DHT22;13395;50.752;4.268;2023-08-12T00:24:43;22.30;99.90
25482;DHT22;13395;50.752;4.268;2023-08-12T00:27:10;22.30;99.90
25482;DHT22;13395;50.752;4.268;2023-08-12T00:29:35;22.30;99.90
25482;DHT22;13395;50.752;4.268;2023-08-12T00:32:01;22.30;99.90
25482;DHT22;13395;50.752;4.268;2023-08-12T00:34:27;22.30;99.90
25482;DHT22;13395;50.752;4.268;2023-08-12T00:36:53;22.30;99.90
25482;DHT22;13395;50.752;4.268;2023-08-12T00:39:18;22.20;99.90
25482;DHT22;13395;50.752;4.268;2023-08-12T00:41:44;22.20;99.90
25482;DHT22;13395;50.752;4.268;2023-08-12T00:44:10;22.30;99.90
25482;DHT22;13395;50.752;4.268;2023-08-12T00:46:37;22.20;99.90
25482;DHT22;13395;50.752;4.268;2023-08-12T00:49:04;22.20;99.90
25482;DHT22;13395;50.752;4.268;2023-08-12T00:51:30;22.20;99.90
25482;DHT22;13395;50.752;4.268;2023-08-12T00:53:58;22.20;99.90
25482;DHT22;13395;50.752;4.268;2023-08-12T00:56:24;22.20;99.90
25482;DHT22;13395;50.752;4.268;2023-08-12T00:58:51;22.10;99.90
25482;DHT22;13395;50.752;4.268;2023-08-12T01:01:17;22.10;99.90
25482;DHT22;13395;50.752;4.268;2023-08-12T01:03:43;22.10;99.90
25482;DHT22;13395;50.752;4.268;2023-08-12T01:06:09;22.10;99.90
25482;DHT22;13395;50.752;4.268;2023-08-12T01:08:35;22.10;99.90
25482;DHT22;13395;50.752;4.268;2023-08-12T01:11:48;22.10;99.90
25482;DHT22;13395;50.752;4.268;2023-08-12T01:17:00;22.10;99.90
25482;DHT22;13395;50.752;4.268;2023-08-12T01:19:38;22.10;99.90
25482;DHT22;13395;50.752;4.268;2023-08-12T01:22:07;22.10;99.90
25482;DHT22;13395;50.752;4.268;2023-08-12T01:24:35;22.10;99.90
25482;DHT22;13395;50.752;4.268;2023-08-12T01:27:01;22.10;99.90
25482;DHT22;13395;50.752;4.268;2023-08-12T01:29:27;22.10;99.90
25482;DHT22;13395;50.752;4.268;2023-08-12T01:34:34;22.10;99.90
25482;DHT22;13395;50.752;4.268;2023-08-12T01:37:04;22.10;99.90
25482;DHT22;13395;50.752;4.268;2023-08-12T01:39:30;22.00;99.90
25482;DHT22;13395;50.752;4.268;2023-08-12T01:41:57;22.00;99.90
25482;DHT22;13395;50.752;4.268;2023-08-12T01:44:24;22.00;99.90
25482;DHT22;13395;50.752;4.268;2023-08-12T01:46:49;22.00;99.90
25482;DHT22;13395;50.752;4.268;2023-08-12T01:49:15;22.00;99.90
25482;DHT22;13395;50.752;4.268;2023-08-12T01:51:41;22.00;99.90
25482;DHT22;13395;50.752;4.268;2023-08-12T01:54:06;22.00;99.90
25482;DHT22;13395;50.752;4.268;2023-08-12T01:56:32;22.00;99.90
25482;DHT22;13395;50.752;4.268;2023-08-12T01:58:58;22.00;99.90
25482;DHT22;13395;50.752;4.268;2023-08-12T02:01:23;22.00;99.90
25482;DHT22;13395;50.752;4.268;2023-08-12T02:03:49;22.00;99.90
25482;DHT22;13395;50.752;4.268;2023-08-12T02:06:14;22.00;99.90
25482;DHT22;13395;50.752;4.268;2023-08-12T02:08:40;22.00;99.90
25482;DHT22;13395;50.752;4.268;2023-08-12T02:11:05;21.90;99.90
25482;DHT22;13395;50.752;4.268;2023-08-12T02:13:31;21.90;99.90
25482;DHT22;13395;50.752;4.268;2023-08-12T02:15:56;21.90;99.90
25482;DHT22;13395;50.752;4.268;2023-08-12T02:18:22;21.90;99.90
25482;DHT22;13395;50.752;4.268;2023-08-12T02:20:48;21.90;99.90
25482;DHT22;13395;50.752;4.268;2023-08-12T02:23:14;22.00;99.90
25482;DHT22;13395;50.752;4.268;2023-08-12T02:25:39;22.00;99.90
25482;DHT22;13395;50.752;4.268;2023-08-12T02:28:05;21.90;99.90
25482;DHT22;13395;50.752;4.268;2023-08-12T02:30:31;22.00;99.90
25482;DHT22;13395;50.752;4.268;2023-08-12T02:32:56;21.90;99.90
25482;DHT22;13395;50.752;4.268;2023-08-12T02:35:22;21.90;99.90
25482;DHT22;13395;50.752;4.268;2023-08-12T02:37:48;21.80;99.90
25482;DHT22;13395;50.752;4.268;2023-08-12T02:40:14;21.90;99.90
25482;DHT22;13395;50.752;4.268;2023-08-12T02:42:39;21.90;99.90
25482;DHT22;13395;50.752;4.268;2023-08-12T02:45:06;21.90;99.90
25482;DHT22;13395;50.752;4.268;2023-08-12T02:47:31;21.90;99.90
25482;DHT22;13395;50.752;4.268;2023-08-12T02:49:57;21.90;99.90
25482;DHT22;13395;50.752;4.268;2023-08-12T02:52:22;21.90;99.90
25482;DHT22;13395;50.752;4.268;2023-08-12T02:54:48;21.90;99.90
25482;DHT22;13395;50.752;4.268;2023-08-12T02:57:14;21.90;99.90
25482;DHT22;13395;50.752;4.268;2023-08-12T02:59:39;21.90;99.90
25482;DHT22;13395;50.752;4.268;2023-08-12T03:02:05;21.90;99.90
25482;DHT22;13395;50.752;4.268;2023-08-12T03:04:30;21.90;99.90
25482;DHT22;13395;50.752;4.268;2023-08-12T03:06:56;21.90;99.90
25482;DHT22;13395;50.752;4.268;2023-08-12T03:09:22;21.90;99.90
25482;DHT22;13395;50.752;4.268;2023-08-12T03:11:47;21.90;99.90
25482;DHT22;13395;50.752;4.268;2023-08-12T03:14:13;21.90;99.90
25482;DHT22;13395;50.752;4.268;2023-08-12T03:16:38;21.90;99.90
25482;DHT22;13395;50.752;4.268;2023-08-12T03:19:04;21.90;99.90
25482;DHT22;13395;50.752;4.268;2023-08-12T03:21:29;21.90;99.90
25482;DHT22;13395;50.752;4.268;2023-08-12T03:23:55;21.80;99.90
25482;DHT22;13395;50.752;4.268;2023-08-12T03:26:21;21.80;99.90
25482;DHT22;13395;50.752;4.268;2023-08-12T03:28:46;21.80;99.90
25482;DHT22;13395;50.752;4.268;2023-08-12T03:31:12;21.90;99.90
25482;DHT22;13395;50.752;4.268;2023-08-12T03:33:37;21.90;99.90
25482;DHT22;13395;50.752;4.268;2023-08-12T03:36:03;21.70;99.90
25482;DHT22;13395;50.752;4.268;2023-08-12T03:38:29;21.50;99.90
25482;DHT22;13395;50.752;4.268;2023-08-12T03:40:54;21.40;99.90
25482;DHT22;13395;50.752;4.268;2023-08-12T03:43:20;21.40;99.90
25482;DHT22;13395;50.752;4.268;2023-08-12T03:45:46;21.40;99.90
25482;DHT22;13395;50.752;4.268;2023-08-12T03:48:12;21.40;99.90
25482;DHT22;13395;50.752;4.268;2023-08-12T03:50:38;21.50;99.90
25482;DHT22;13395;50.752;4.268;2023-08-12T03:53:05;21.50;99.90
25482;DHT22;13395;50.752;4.268;2023-08-12T03:55:33;21.40;99.90
25482;DHT22;13395;50.752;4.268;2023-08-12T03:58:00;21.40;99.90
25482;DHT22;13395;50.752;4.268;2023-08-12T04:00:26;21.40;99.90
25482;DHT22;13395;50.752;4.268;2023-08-12T04:02:51;21.40;99.90
25482;DHT22;13395;50.752;4.268;2023-08-12T04:05:17;21.40;99.90
25482;DHT22;13395;50.752;4.268;2023-08-12T04:07:43;21.40;99.90
25482;DHT22;13395;50.752;4.268;2023-08-12T04:10:09;21.40;99.90
25482;DHT22;13395;50.752;4.268;2023-08-12T04:12:34;21.50;99.90
25482;DHT22;13395;50.752;4.268;2023-08-12T04:15:00;21.40;99.90
25482;DHT22;13395;50.752;4.268;2023-08-12T04:17:29;21.40;99.90
25482;DHT22;13395;50.752;4.268;2023-08-12T04:19:54;21.40;99.90
25482;DHT22;13395;50.752;4.268;2023-08-12T04:22:20;21.40;99.90
25482;DHT22;13395;50.752;4.268;2023-08-12T04:24:45;21.40;99.90
25482;DHT22;13395;50.752;4.268;2023-08-12T04:27:11;21.30;99.90
25482;DHT22;13395;50.752;4.268;2023-08-12T04:29:36;21.30;99.90
25482;DHT22;13395;50.752;4.268;2023-08-12T04:32:02;21.30;99.90
25482;DHT22;13395;50.752;4.268;2023-08-12T04:34:28;21.30;99.90
25482;DHT22;13395;50.752;4.268;2023-08-12T04:36:53;21.30;99.90
25482;DHT22;13395;50.752;4.268;2023-08-12T04:39:19;21.40;99.90
25482;DHT22;13395;50.752;4.268;2023-08-12T04:41:44;21.40;99.90
25482;DHT22;13395;50.752;4.268;2023-08-12T04:44:10;21.40;99.90
25482;DHT22;13395;50.752;4.268;2023-08-12T04:46:35;21.30;99.90
25482;DHT22;13395;50.752;4.268;2023-08-12T04:49:01;21.30;99.90
25482;DHT22;13395;50.752;4.268;2023-08-12T04:51:27;21.30;99.90
25482;DHT22;13395;50.752;4.268;2023-08-12T04:53:53;21.30;99.90
25482;DHT22;13395;50.752;4.268;2023-08-12T04:56:18;21.30;99.90
25482;DHT22;13395;50.752;4.268;2023-08-12T04:58:44;21.30;99.90
25482;DHT22;13395;50.752;4.268;2023-08-12T05:01:09;21.40;99.90
25482;DHT22;13395;50.752;4.268;2023-08-12T05:03:35;21.30;99.90
25482;DHT22;13395;50.752;4.268;2023-08-12T05:06:00;21.30;99.90
25482;DHT22;13395;50.752;4.268;2023-08-12T05:08:26;21.30;99.90
25482;DHT22;13395;50.752;4.268;2023-08-12T05:10:51;21.30;99.90
25482;DHT22;13395;50.752;4.268;2023-08-12T05:13:17;21.30;99.90
25482;DHT22;13395;50.752;4.268;2023-08-12T05:15:46;21.20;99.90
25482;DHT22;13395;50.752;4.268;2023-08-12T05:18:13;21.20;99.90
25482;DHT22;13395;50.752;4.268;2023-08-12T05:20:42;21.10;99.90
25482;DHT22;13395;50.752;4.268;2023-08-12T05:23:08;21.20;99.90
25482;DHT22;13395;50.752;4.268;2023-08-12T05:25:34;21.20;99.90
25482;DHT22;13395;50.752;4.268;2023-08-12T05:28:00;21.20;99.90
25482;DHT22;13395;50.752;4.268;2023-08-12T05:30:25;21.20;99.90
25482;DHT22;13395;50.752;4.268;2023-08-12T05:32:51;21.20;99.90
25482;DHT22;13395;50.752;4.268;2023-08-12T05:35:16;21.20;99.90
25482;DHT22;13395;50.752;4.268;2023-08-12T05:37:42;21.20;99.90
25482;DHT22;13395;50.752;4.268;2023-08-12T05:40:11;21.30;99.90
25482;DHT22;13395;50.752;4.268;2023-08-12T05:42:37;21.30;99.90
25482;DHT22;13395;50.752;4.268;2023-08-12T05:45:03;21.30;99.90
25482;DHT22;13395;50.752;4.268;2023-08-12T05:47:29;21.40;99.90
25482;DHT22;13395;50.752;4.268;2023-08-12T05:49:55;21.40;99.90
25482;DHT22;13395;50.752;4.268;2023-08-12T05:52:20;21.40;99.90
25482;DHT22;13395;50.752;4.268;2023-08-12T05:54:46;21.40;99.90
25482;DHT22;13395;50.752;4.268;2023-08-12T05:57:11;21.40;99.90
25482;DHT22;13395;50.752;4.268;2023-08-12T05:59:37;21.30;99.90
25482;DHT22;13395;50.752;4.268;2023-08-12T06:02:03;21.40;99.90
25482;DHT22;13395;50.752;4.268;2023-08-12T06:04:29;21.30;99.90
25482;DHT22;13395;50.752;4.268;2023-08-12T06:06:54;21.30;99.90
25482;DHT22;13395;50.752;4.268;2023-08-12T06:09:21;21.40;99.90
25482;DHT22;13395;50.752;4.268;2023-08-12T06:11:47;21.40;99.90
25482;DHT22;13395;50.752;4.268;2023-08-12T06:14:12;21.30;99.90
25482;DHT22;13395;50.752;4.268;2023-08-12T06:16:38;21.40;99.90
25482;DHT22;13395;50.752;4.268;2023-08-12T06:19:04;21.40;99.90
25482;DHT22;13395;50.752;4.268;2023-08-12T06:21:29;21.30;99.90
25482;DHT22;13395;50.752;4.268;2023-08-12T06:23:55;21.50;99.90
25482;DHT22;13395;50.752;4.268;2023-08-12T06:26:21;21.60;99.90
25482;DHT22;13395;50.752;4.268;2023-08-12T06:28:47;21.50;99.90
25482;DHT22;13395;50.752;4.268;2023-08-12T06:31:12;21.50;99.90
25482;DHT22;13395;50.752;4.268;2023-08-12T06:33:38;21.60;99.90
25482;DHT22;13395;50.752;4.268;2023-08-12T06:36:04;21.60;99.90
25482;DHT22;13395;50.752;4.268;2023-08-12T06:38:29;21.70;99.90
25482;DHT22;13395;50.752;4.268;2023-08-12T06:40:55;21.70;99.90
25482;DHT22;13395;50.752;4.268;2023-08-12T06:43:21;21.70;99.90
25482;DHT22;13395;50.752;4.268;2023-08-12T06:45:46;21.70;99.90
25482;DHT22;13395;50.752;4.268;2023-08-12T06:48:12;21.80;99.90
25482;DHT22;13395;50.752;4.268;2023-08-12T06:50:37;21.80;99.90
25482;DHT22;13395;50.752;4.268;2023-08-12T06:53:03;21.80;99.90
25482;DHT22;13395;50.752;4.268;2023-08-12T06:55:29;21.80;99.90
25482;DHT22;13395;50.752;4.268;2023-08-12T06:57:54;21.80;99.90
25482;DHT22;13395;50.752;4.268;2023-08-12T07:00:20;21.70;99.90
25482;DHT22;13395;50.752;4.268;2023-08-12T07:02:45;21.50;99.90
25482;DHT22;13395;50.752;4.268;2023-08-12T07:05:11;21.20;99.90
25482;DHT22;13395;50.752;4.268;2023-08-12T07:07:36;21.00;99.90
25482;DHT22;13395;50.752;4.268;2023-08-12T07:10:02;20.80;99.90
25482;DHT22;13395;50.752;4.268;2023-08-12T07:12:29;20.50;99.90
25482;DHT22;13395;50.752;4.268;2023-08-12T07:14:55;20.40;99.90
25482;DHT22;13395;50.752;4.268;2023-08-12T07:17:21;20.20;99.90
25482;DHT22;13395;50.752;4.268;2023-08-12T07:19:47;20.10;99.90
25482;DHT22;13395;50.752;4.268;2023-08-12T07:22:12;20.00;99.90
25482;DHT22;13395;50.752;4.268;2023-08-12T07:24:38;20.10;99.90
25482;DHT22;13395;50.752;4.268;2023-08-12T07:27:04;20.10;99.90
25482;DHT22;13395;50.752;4.268;2023-08-12T07:29:29;20.00;99.90
25482;DHT22;13395;50.752;4.268;2023-08-12T07:31:56;20.00;99.90
25482;DHT22;13395;50.752;4.268;2023-08-12T07:34:21;20.10;99.90
25482;DHT22;13395;50.752;4.268;2023-08-12T07:36:47;20.00;99.90
25482;DHT22;13395;50.752;4.268;2023-08-12T07:39:12;20.10;99.90
25482;DHT22;13395;50.752;4.268;2023-08-12T07:41:38;20.00;99.90
25482;DHT22;13395;50.752;4.268;2023-08-12T07:44:04;20.20;99.90
25482;DHT22;13395;50.752;4.268;2023-08-12T07:46:30;20.50;99.90
25482;DHT22;13395;50.752;4.268;2023-08-12T07:48:56;20.70;99.90
25482;DHT22;13395;50.752;4.268;2023-08-12T07:51:22;20.80;99.90
25482;DHT22;13395;50.752;4.268;2023-08-12T07:53:48;20.90;99.90
25482;DHT22;13395;50.752;4.268;2023-08-12T07:56:13;21.10;99.90
25482;DHT22;13395;50.752;4.268;2023-08-12T07:58:39;21.20;99.90
25482;DHT22;13395;50.752;4.268;2023-08-12T08:01:05;21.30;99.90
25482;DHT22;13395;50.752;4.268;2023-08-12T08:03:30;21.30;99.90
25482;DHT22;13395;50.752;4.268;2023-08-12T08:05:56;21.20;99.90
25482;DHT22;13395;50.752;4.268;2023-08-12T08:08:22;21.20;99.90
25482;DHT22;13395;50.752;4.268;2023-08-12T08:10:47;21.10;99.90
25482;DHT22;13395;50.752;4.268;2023-08-12T08:13:13;21.10;99.90
25482;DHT22;13395;50.752;4.268;2023-08-12T08:15:38;21.10;99.90
25482;DHT22;13395;50.752;4.268;2023-08-12T08:18:04;21.30;99.90
25482;DHT22;13395;50.752;4.268;2023-08-12T08:20:30;21.40;99.90
25482;DHT22;13395;50.752;4.268;2023-08-12T08:22:56;21.70;99.90
25482;DHT22;13395;50.752;4.268;2023-08-12T08:25:22;21.80;99.90
25482;DHT22;13395;50.752;4.268;2023-08-12T08:27:47;22.10;99.90
25482;DHT22;13395;50.752;4.268;2023-08-12T08:30:13;22.40;99.90
25482;DHT22;13395;50.752;4.268;2023-08-12T08:32:39;22.60;99.90
25482;DHT22;13395;50.752;4.268;2023-08-12T08:35:04;22.70;99.90
25482;DHT22;13395;50.752;4.268;2023-08-12T08:37:30;22.80;99.90
25482;DHT22;13395;50.752;4.268;2023-08-12T08:39:56;22.50;99.90
25482;DHT22;13395;50.752;4.268;2023-08-12T08:42:24;22.20;99.90
25482;DHT22;13395;50.752;4.268;2023-08-12T08:44:52;21.80;99.90
25482;DHT22;13395;50.752;4.268;2023-08-12T08:47:22;21.40;99.90
25482;DHT22;13395;50.752;4.268;2023-08-12T08:49:50;21.30;99.90
25482;DHT22;13395;50.752;4.268;2023-08-12T08:52:17;21.40;99.90
25482;DHT22;13395;50.752;4.268;2023-08-12T08:54:42;21.60;99.90
25482;DHT22;13395;50.752;4.268;2023-08-12T08:57:08;21.80;99.90
25482;DHT22;13395;50.752;4.268;2023-08-12T08:59:34;22.10;99.90
25482;DHT22;13395;50.752;4.268;2023-08-12T09:02:00;22.90;99.90
25482;DHT22;13395;50.752;4.268;2023-08-12T09:04:26;23.90;99.90
25482;DHT22;13395;50.752;4.268;2023-08-12T09:06:52;23.90;99.90
25482;DHT22;13395;50.752;4.268;2023-08-12T09:09:20;23.80;99.90
25482;DHT22;13395;50.752;4.268;2023-08-12T09:11:47;23.60;99.90
25482;DHT22;13395;50.752;4.268;2023-08-12T09:14:13;23.40;99.90
25482;DHT22;13395;50.752;4.268;2023-08-12T09:16:40;23.20;99.90
25482;DHT22;13395;50.752;4.268;2023-08-12T09:19:06;22.80;99.90
25482;DHT22;13395;50.752;4.268;2023-08-12T09:21:31;22.60;99.90
25482;DHT22;13395;50.752;4.268;2023-08-12T09:24:02;22.50;99.90
25482;DHT22;13395;50.752;4.268;2023-08-12T09:26:28;22.30;99.90
25482;DHT22;13395;50.752;4.268;2023-08-12T09:28:54;22.30;99.90
25482;DHT22;13395;50.752;4.268;2023-08-12T09:31:27;22.10;99.90
25482;DHT22;13395;50.752;4.268;2023-08-12T09:33:57;21.80;99.90
25482;DHT22;13395;50.752;4.268;2023-08-12T09:36:23;22.00;99.90
25482;DHT22;13395;50.752;4.268;2023-08-12T09:38:49;22.20;99.90
25482;DHT22;13395;50.752;4.268;2023-08-12T09:41:15;22.30;99.90
25482;DHT22;13395;50.752;4.268;2023-08-12T09:43:41;22.20;99.90
25482;DHT22;13395;50.752;4.268;2023-08-12T09:46:11;22.30;99.90
25482;DHT22;13395;50.752;4.268;2023-08-12T09:48:38;22.30;99.90
25482;DHT22;13395;50.752;4.268;2023-08-12T09:51:03;22.40;99.90
25482;DHT22;13395;50.752;4.268;2023-08-12T09:53:30;22.40;99.90
25482;DHT22;13395;50.752;4.268;2023-08-12T09:55:58;22.40;99.90
25482;DHT22;13395;50.752;4.268;2023-08-12T09:58:26;22.60;99.90
25482;DHT22;13395;50.752;4.268;2023-08-12T10:00:54;22.70;99.90
25482;DHT22;13395;50.752;4.268;2023-08-12T10:03:21;23.00;99.90
25482;DHT22;13395;50.752;4.268;2023-08-12T10:05:47;23.40;99.90
25482;DHT22;13395;50.752;4.268;2023-08-12T10:08:14;23.70;99.90
25482;DHT22;13395;50.752;4.268;2023-08-12T10:10:40;24.00;99.90
25482;DHT22;13395;50.752;4.268;2023-08-12T10:13:06;24.20;99.90
25482;DHT22;13395;50.752;4.268;2023-08-12T10:15:34;24.50;99.90
25482;DHT22;13395;50.752;4.268;2023-08-12T10:18:01;24.80;99.90
25482;DHT22;13395;50.752;4.268;2023-08-12T10:20:27;25.70;99.90
25482;DHT22;13395;50.752;4.268;2023-08-12T10:22:55;27.10;99.90
25482;DHT22;13395;50.752;4.268;2023-08-12T10:25:21;28.10;99.90
25482;DHT22;13395;50.752;4.268;2023-08-12T10:27:47;28.30;99.90
25482;DHT22;13395;50.752;4.268;2023-08-12T10:30:13;29.20;99.90
25482;DHT22;13395;50.752;4.268;2023-08-12T10:32:39;30.70;99.90
25482;DHT22;13395;50.752;4.268;2023-08-12T10:35:05;33.00;99.10
25482;DHT22;13395;50.752;4.268;2023-08-12T10:37:33;34.20;94.20
25482;DHT22;13395;50.752;4.268;2023-08-12T10:40:02;34.20;91.40
25482;DHT22;13395;50.752;4.268;2023-08-12T10:42:46;34.60;91.40
25482;DHT22;13395;50.752;4.268;2023-08-12T10:45:13;35.60;90.00
25482;DHT22;13395;50.752;4.268;2023-08-12T10:48:29;36.40;87.20
25482;DHT22;13395;50.752;4.268;2023-08-12T10:50:31;36.60;82.00
25482;DHT22;13395;50.752;4.268;2023-08-12T10:52:57;36.40;82.10
25482;DHT22;13395;50.752;4.268;2023-08-12T10:55:24;36.50;82.20
25482;DHT22;13395;50.752;4.268;2023-08-12T10:57:51;36.70;77.80
25482;DHT22;13395;50.752;4.268;2023-08-12T11:00:27;36.50;79.90
25482;DHT22;13395;50.752;4.268;2023-08-12T11:02:57;37.00;77.90
25482;DHT22;13395;50.752;4.268;2023-08-12T11:05:24;36.30;79.00
25482;DHT22;13395;50.752;4.268;2023-08-12T11:08:01;36.50;77.50
25482;DHT22;13395;50.752;4.268;2023-08-12T11:10:32;36.30;75.00
25482;DHT22;13395;50.752;4.268;2023-08-12T11:12:59;35.40;77.90
25482;DHT22;13395;50.752;4.268;2023-08-12T11:15:42;35.30;79.10
25482;DHT22;13395;50.752;4.268;2023-08-12T11:18:14;34.70;77.80
25482;DHT22;13395;50.752;4.268;2023-08-12T11:20:41;35.00;80.60
25482;DHT22;13395;50.752;4.268;2023-08-12T11:23:08;35.10;78.70
25482;DHT22;13395;50.752;4.268;2023-08-12T11:25:35;35.40;76.30
25482;DHT22;13395;50.752;4.268;2023-08-12T11:28:01;34.80;76.60
25482;DHT22;13395;50.752;4.268;2023-08-12T11:30:27;34.10;77.50
25482;DHT22;13395;50.752;4.268;2023-08-12T11:32:54;35.20;79.60
25482;DHT22;13395;50.752;4.268;2023-08-12T11:35:21;36.00;74.20
25482;DHT22;13395;50.752;4.268;2023-08-12T11:37:54;35.90;75.20
25482;DHT22;13395;50.752;4.268;2023-08-12T11:40:21;36.40;75.80
25482;DHT22;13395;50.752;4.268;2023-08-12T11:42:48;36.90;72.90
25482;DHT22;13395;50.752;4.268;2023-08-12T11:45:17;36.00;73.90
25482;DHT22;13395;50.752;4.268;2023-08-12T11:47:43;34.90;75.80
25482;DHT22;13395;50.752;4.268;2023-08-12T11:50:10;34.80;75.00
25482;DHT22;13395;50.752;4.268;2023-08-12T11:52:37;34.10;77.30
25482;DHT22;13395;50.752;4.268;2023-08-12T11:55:07;33.10;79.10
25482;DHT22;13395;50.752;4.268;2023-08-12T11:57:33;33.60;78.30
25482;DHT22;13395;50.752;4.268;2023-08-12T12:00:07;34.30;79.20
25482;DHT22;13395;50.752;4.268;2023-08-12T12:02:49;35.40;74.10
25482;DHT22;13395;50.752;4.268;2023-08-12T12:05:16;35.40;72.00
25482;DHT22;13395;50.752;4.268;2023-08-12T12:07:41;35.60;73.30
25482;DHT22;13395;50.752;4.268;2023-08-12T12:10:08;35.30;70.50
25482;DHT22;13395;50.752;4.268;2023-08-12T12:12:35;33.70;75.20
25482;DHT22;13395;50.752;4.268;2023-08-12T12:15:01;32.70;82.00
25482;DHT22;13395;50.752;4.268;2023-08-12T12:17:27;32.60;78.20
25482;DHT22;13395;50.752;4.268;2023-08-12T12:19:58;32.60;79.80
25482;DHT22;13395;50.752;4.268;2023-08-12T12:22:28;32.30;81.30
25482;DHT22;13395;50.752;4.268;2023-08-12T12:24:57;31.70;81.20
25482;DHT22;13395;50.752;4.268;2023-08-12T12:27:24;33.00;83.10
25482;DHT22;13395;50.752;4.268;2023-08-12T12:29:50;34.30;79.20
25482;DHT22;13395;50.752;4.268;2023-08-12T12:32:18;34.90;76.60
25482;DHT22;13395;50.752;4.268;2023-08-12T12:34:45;35.00;73.10
25482;DHT22;13395;50.752;4.268;2023-08-12T12:37:12;35.20;76.40
25482;DHT22;13395;50.752;4.268;2023-08-12T12:39:38;35.60;75.10
25482;DHT22;13395;50.752;4.268;2023-08-12T12:42:05;34.90;75.10
25482;DHT22;13395;50.752;4.268;2023-08-12T12:44:30;34.10;75.40
25482;DHT22;13395;50.752;4.268;2023-08-12T12:46:56;33.90;75.80
25482;DHT22;13395;50.752;4.268;2023-08-12T12:49:22;32.80;77.00
25482;DHT22;13395;50.752;4.268;2023-08-12T12:51:47;32.40;77.00
25482;DHT22;13395;50.752;4.268;2023-08-12T12:54:13;32.60;78.10
25482;DHT22;13395;50.752;4.268;2023-08-12T12:56:39;32.50;78.10
25482;DHT22;13395;50.752;4.268;2023-08-12T12:59:04;32.20;78.20
25482;DHT22;13395;50.752;4.268;2023-08-12T13:01:31;32.50;79.40
25482;DHT22;13395;50.752;4.268;2023-08-12T13:03:57;32.90;79.70
25482;DHT22;13395;50.752;4.268;2023-08-12T13:06:22;32.50;79.50
25482;DHT22;13395;50.752;4.268;2023-08-12T13:08:48;32.50;79.60
25482;DHT22;13395;50.752;4.268;2023-08-12T13:11:15;33.10;79.00
25482;DHT22;13395;50.752;4.268;2023-08-12T13:13:41;34.00;78.80
25482;DHT22;13395;50.752;4.268;2023-08-12T13:16:06;33.30;75.30
25482;DHT22;13395;50.752;4.268;2023-08-12T13:18:33;32.30;80.30
25482;DHT22;13395;50.752;4.268;2023-08-12T13:20:59;30.90;80.50
25482;DHT22;13395;50.752;4.268;2023-08-12T13:23:25;30.20;84.00
25482;DHT22;13395;50.752;4.268;2023-08-12T13:25:50;30.10;83.90
25482;DHT22;13395;50.752;4.268;2023-08-12T13:28:16;30.10;84.10
25482;DHT22;13395;50.752;4.268;2023-08-12T13:30:42;29.60;86.10
25482;DHT22;13395;50.752;4.268;2023-08-12T13:33:07;29.40;88.60
25482;DHT22;13395;50.752;4.268;2023-08-12T13:35:33;29.10;83.70
25482;DHT22;13395;50.752;4.268;2023-08-12T13:37:59;28.80;86.60
25482;DHT22;13395;50.752;4.268;2023-08-12T13:40:25;28.60;87.60
25482;DHT22;13395;50.752;4.268;2023-08-12T13:42:51;28.10;89.50
25482;DHT22;13395;50.752;4.268;2023-08-12T13:45:16;27.80;90.40
25482;DHT22;13395;50.752;4.268;2023-08-12T13:47:42;27.70;91.20
25482;DHT22;13395;50.752;4.268;2023-08-12T13:50:08;27.80;91.10
25482;DHT22;13395;50.752;4.268;2023-08-12T13:52:33;27.70;88.80
25482;DHT22;13395;50.752;4.268;2023-08-12T13:54:59;27.50;89.10
25482;DHT22;13395;50.752;4.268;2023-08-12T13:57:25;27.50;85.90
25482;DHT22;13395;50.752;4.268;2023-08-12T13:59:51;27.50;86.20
25482;DHT22;13395;50.752;4.268;2023-08-12T14:02:16;27.30;90.30
25482;DHT22;13395;50.752;4.268;2023-08-12T14:04:42;27.20;87.50
25482;DHT22;13395;50.752;4.268;2023-08-12T14:07:08;27.50;91.70
25482;DHT22;13395;50.752;4.268;2023-08-12T14:09:34;27.40;88.40
25482;DHT22;13395;50.752;4.268;2023-08-12T14:11:59;27.40;90.00
25482;DHT22;13395;50.752;4.268;2023-08-12T14:14:25;26.90;89.80
25482;DHT22;13395;50.752;4.268;2023-08-12T14:16:55;26.60;89.40
25482;DHT22;13395;50.752;4.268;2023-08-12T14:19:20;26.50;88.50
25482;DHT22;13395;50.752;4.268;2023-08-12T14:21:46;26.50;90.40
25482;DHT22;13395;50.752;4.268;2023-08-12T14:24:11;26.50;91.80
25482;DHT22;13395;50.752;4.268;2023-08-12T14:26:38;26.40;90.60
25482;DHT22;13395;50.752;4.268;2023-08-12T14:29:04;26.50;92.20
25482;DHT22;13395;50.752;4.268;2023-08-12T14:31:30;26.40;90.00
25482;DHT22;13395;50.752;4.268;2023-08-12T14:33:55;26.50;91.00
25482;DHT22;13395;50.752;4.268;2023-08-12T14:36:21;26.70;92.40
25482;DHT22;13395;50.752;4.268;2023-08-12T14:38:47;26.90;92.60
25482;DHT22;13395;50.752;4.268;2023-08-12T14:41:12;26.90;91.20
25482;DHT22;13395;50.752;4.268;2023-08-12T14:43:38;27.00;90.40
25482;DHT22;13395;50.752;4.268;2023-08-12T14:46:03;27.10;90.00
25482;DHT22;13395;50.752;4.268;2023-08-12T14:48:31;27.10;90.10
25482;DHT22;13395;50.752;4.268;2023-08-12T14:50:56;27.10;91.70
25482;DHT22;13395;50.752;4.268;2023-08-12T14:53:22;27.00;90.90
25482;DHT22;13395;50.752;4.268;2023-08-12T14:55:48;26.70;90.70
25482;DHT22;13395;50.752;4.268;2023-08-12T14:58:13;26.60;88.90
25482;DHT22;13395;50.752;4.268;2023-08-12T15:00:39;26.70;90.70
25482;DHT22;13395;50.752;4.268;2023-08-12T15:03:04;26.70;88.10
25482;DHT22;13395;50.752;4.268;2023-08-12T15:05:30;26.70;86.60
25482;DHT22;13395;50.752;4.268;2023-08-12T15:07:55;26.80;89.30
25482;DHT22;13395;50.752;4.268;2023-08-12T15:10:21;26.80;89.40
25482;DHT22;13395;50.752;4.268;2023-08-12T15:12:47;26.90;91.80
25482;DHT22;13395;50.752;4.268;2023-08-12T15:15:13;26.80;90.90
25482;DHT22;13395;50.752;4.268;2023-08-12T15:17:39;26.80;89.90
25482;DHT22;13395;50.752;4.268;2023-08-12T15:20:05;26.80;90.60
25482;DHT22;13395;50.752;4.268;2023-08-12T15:22:31;26.80;90.30
25482;DHT22;13395;50.752;4.268;2023-08-12T15:24:57;26.80;90.60
25482;DHT22;13395;50.752;4.268;2023-08-12T15:27:23;26.80;90.50
25482;DHT22;13395;50.752;4.268;2023-08-12T15:29:48;26.60;90.30